Forside
METAR-TAF:

METAR-TAF

Lufthavne :

Red Wing Regional Airport

Red Wing, Minnesota, USA

Breddekreds: 44-35-25N, længdekreds: 092-29-10W, højde: 239 m

Aktuelle vejr

Denne rapport blev lavet for 18 minutter siden, kl. 02:35 UTC
Vind 4 kt fra sydøst
Temperatur 22°C
Fugtighed 73%
Tryk 1010 hPa
Sigt: 16.1 km
Spredte skyer i en højde af 4400 ft
Brudte skyer i en højde af 5500 ft
Overskyet i en højde af 6500 ft

METAR: KRGK 250235Z AUTO 13004KT 10SM SCT044 BKN055 OVC065 22/17 A2982 RMK AO2

Tid: 21:53 (02:53 UTC)


TAF: fraværende

Vejrobservationer og prognoser fra mere end 4000 lufthavne (METAR og TAF).

De gule og røde prikker repræsenterer de meteorologiske stationer.

Flyt musen over at se navnet på stationen.

Så klik over at se vejr observationer og prognoser.

At skifte det kort: Klik på de grønne knapper med et sort kors for at zoome ind; på den grønne knap med en bindestreg for at zoome ud; eller på de grønne pile for tilstødende kort.


METAR-TAF: